Jack Brusco — WDC3066 — position and weather

sailwx.info

Track history (hours):
 
Tides and Currents Weather Stations Pressure Air Temp Water Temp Dewpoint Dewpoint Depression Visibility Wind Speed Wind Dir Waves Ship Positions

Jack Brusco

Owner: Brusco Tug & Barge, Inc., Longview, WA. More information available from US FCC via Universal Licensing System and Coast Guard Vessel Documentation Center.

Last reported at 2015-Jan-29 17:11 UTC. Time now 2015-Jan-29 18:22 UTC.
Position N 49°32' W 123°29'.

Length 36 m; draft 5.2 m.

Type: Tug. MMSI: 3699086.

Date/timePositionNaut miles runAvg speedWind from/ knotsBaromVisibWave heightAir tempDewpointWater temp
2015-Jan-29 17:11N 49°32' W 123°29'0 0.0
2015-Jan-29 16:22N 49°32' W 123°29'0 0.0
2015-Jan-29 15:07N 49°32' W 123°29'0 0.0
2015-Jan-29 14:27N 49°32' W 123°29'0 0.0
2015-Jan-29 13:27N 49°32' W 123°29'0 0.0
2015-Jan-29 12:28N 49°32' W 123°29'0 0.0
2015-Jan-29 11:33N 49°32' W 123°29'0 0.0
2015-Jan-28 15:32N 49°32' W 123°29'0 0.0
2015-Jan-28 14:30N 49°32' W 123°29'0 0.0
2015-Jan-28 11:22N 49°32' W 123°29'0 0.0
2015-Jan-28 10:29N 49°32' W 123°29'0 0.0
2015-Jan-28 09:30N 49°32' W 123°29'0 0.0
2015-Jan-28 07:31N 49°32' W 123°29'0 0.0
2015-Jan-28 03:18N 49°32' W 123°29'0 0.0
2015-Jan-27 23:17N 49°32' W 123°29'0 0.0
2015-Jan-27 19:14N 49°32' W 123°29'7 0.3
2015-Jan-26 17:32N 49°28' W 123°18'6 6.5
2015-Jan-26 16:33N 49°22' W 123°19'7 7.0
2015-Jan-26 15:33N 49°15' W 123°22'7 7.0
2015-Jan-26 14:33N 49°08' W 123°25'7 7.2
2015-Jan-26 13:33N 49°03' W 123°18'8 7.7
2015-Jan-26 12:33N 48°58' W 123°09'7 7.4
2015-Jan-26 11:38N 48°53' W 123°02'1 7.2
2015-Jan-26 11:33N 48°52' W 123°02'1 7.2
2015-Jan-26 11:28N 48°52' W 123°01'6 5.9
2015-Jan-26 10:24N 48°45' W 123°03'1 6.5
2015-Jan-26 10:18N 48°45' W 123°04'5 6.4
2015-Jan-26 09:30N 48°43' W 123°11'1 6.9
2015-Jan-26 09:18N 48°42' W 123°13'4 5.2
2015-Jan-26 08:32N 48°38' W 123°14'6 6.2
2015-Jan-26 07:33N 48°33' W 123°12'6 6.3
2015-Jan-26 06:33N 48°26' W 123°10'7 6.8
2015-Jan-26 05:33N 48°21' W 123°16'8 8.0
2015-Jan-26 04:30N 48°16' W 123°26'7 7.7
2015-Jan-26 03:33N 48°13' W 123°36'25 7.6
2015-Jan-26 00:19N 48°17' W 124°12'5 6.7
2015-Jan-25 23:32N 48°19' W 124°19'7 6.8
2015-Jan-25 22:33N 48°22' W 124°28'6 6.0
2015-Jan-25 21:33N 48°25' W 124°37'5 5.2
2015-Jan-25 20:33N 48°26' W 124°44'5 4.6
2015-Jan-25 19:32N 48°23' W 124°50'9 7.3
2015-Jan-25 18:18N 48°16' W 124°58'72 7.3
2015-Jan-25 08:25N 47°06' W 124°34'6 7.1
2015-Jan-25 07:33N 46°60' W 124°32'7 7.1
2015-Jan-25 06:33N 46°53' W 124°29'7 7.1
2015-Jan-25 05:33N 46°46' W 124°27'7 7.3
2015-Jan-25 04:33N 46°39' W 124°25'7 7.3
2015-Jan-25 03:33N 46°32' W 124°23'7 7.3
2015-Jan-25 02:33N 46°25' W 124°21'8 7.6
2015-Jan-25 01:33N 46°17' W 124°18'7 6.9
2015-Jan-25 00:34N 46°11' W 124°15'7 6.8
2015-Jan-24 23:34N 46°05' W 124°21'7 7.0
2015-Jan-24 22:33N 46°00' W 124°28'7 6.9
2015-Jan-24 21:33N 45°54' W 124°32'7 7.3
2015-Jan-24 20:33N 45°47' W 124°33'7 7.1
2015-Jan-24 19:33N 45°40' W 124°34'7 7.3
2015-Jan-24 18:33N 45°32' W 124°34'  
2015-Jan-20 04:33N 45°35' W 124°35'7 7.3
2015-Jan-20 03:33N 45°42' W 124°34'8 7.6
2015-Jan-20 02:33N 45°50' W 124°33'8 7.6
2015-Jan-20 01:33N 45°58' W 124°30'7 7.3
2015-Jan-20 00:33N 46°03' W 124°24'7 6.7
2015-Jan-19 23:33N 46°08' W 124°17'6 6.2
2015-Jan-19 22:33N 46°14' W 124°18'7 6.8
2015-Jan-19 21:35N 46°21' W 124°20'0 8.1
2015-Jan-19 21:33N 46°21' W 124°20'7 6.9
2015-Jan-19 20:33N 46°28' W 124°22'3 7.1
2015-Jan-19 20:05N 46°31' W 124°23'4 6.8
2015-Jan-19 19:33N 46°35' W 124°24'3 7.2
2015-Jan-19 19:09N 46°37' W 124°24'4 7.3
2015-Jan-19 18:33N 46°42' W 124°26'4 7.5
2015-Jan-19 18:04N 46°45' W 124°27'4 7.3
2015-Jan-19 17:33N 46°49' W 124°28'0 7.6
2015-Jan-19 17:30N 46°49' W 124°28'  
Track history (hours):
 
Tides and Currents Weather Stations Pressure Air Temp Water Temp Dewpoint Dewpoint Depression Visibility Wind Speed Wind Dir Waves Ship Positions

Jack Brusco

Owner: Brusco Tug & Barge, Inc., Longview, WA. More information available from US FCC via Universal Licensing System and Coast Guard Vessel Documentation Center.

Last reported at 2015-Jan-29 17:11 UTC. Time now 2015-Jan-29 18:22 UTC.
Position N 49°32' W 123°29'.

Length 36 m; draft 5.2 m.

Type: Tug. MMSI: 3699086.

Date/timePositionNaut miles runAvg speedWind from/ knotsBaromVisibWave heightAir tempDewpointWater temp
2015-Jan-29 17:11N 49°32' W 123°29'0 0.0
2015-Jan-29 16:22N 49°32' W 123°29'0 0.0
2015-Jan-29 15:07N 49°32' W 123°29'0 0.0
2015-Jan-29 14:27N 49°32' W 123°29'0 0.0
2015-Jan-29 13:27N 49°32' W 123°29'0 0.0
2015-Jan-29 12:28N 49°32' W 123°29'0 0.0
2015-Jan-29 11:33N 49°32' W 123°29'0 0.0
2015-Jan-28 15:32N 49°32' W 123°29'0 0.0
2015-Jan-28 14:30N 49°32' W 123°29'0 0.0
2015-Jan-28 11:22N 49°32' W 123°29'0 0.0
2015-Jan-28 10:29N 49°32' W 123°29'0 0.0
2015-Jan-28 09:30N 49°32' W 123°29'0 0.0
2015-Jan-28 07:31N 49°32' W 123°29'0 0.0
2015-Jan-28 03:18N 49°32' W 123°29'0 0.0
2015-Jan-27 23:17N 49°32' W 123°29'0 0.0
2015-Jan-27 19:14N 49°32' W 123°29'7 0.3
2015-Jan-26 17:32N 49°28' W 123°18'6 6.5
2015-Jan-26 16:33N 49°22' W 123°19'7 7.0
2015-Jan-26 15:33N 49°15' W 123°22'7 7.0
2015-Jan-26 14:33N 49°08' W 123°25'7 7.2
2015-Jan-26 13:33N 49°03' W 123°18'8 7.7
2015-Jan-26 12:33N 48°58' W 123°09'7 7.4
2015-Jan-26 11:38N 48°53' W 123°02'1 7.2
2015-Jan-26 11:33N 48°52' W 123°02'1 7.2
2015-Jan-26 11:28N 48°52' W 123°01'6 5.9
2015-Jan-26 10:24N 48°45' W 123°03'1 6.5
2015-Jan-26 10:18N 48°45' W 123°04'5 6.4
2015-Jan-26 09:30N 48°43' W 123°11'1 6.9
2015-Jan-26 09:18N 48°42' W 123°13'4 5.2
2015-Jan-26 08:32N 48°38' W 123°14'6 6.2
2015-Jan-26 07:33N 48°33' W 123°12'6 6.3
2015-Jan-26 06:33N 48°26' W 123°10'7 6.8
2015-Jan-26 05:33N 48°21' W 123°16'8 8.0
2015-Jan-26 04:30N 48°16' W 123°26'7 7.7
2015-Jan-26 03:33N 48°13' W 123°36'25 7.6
2015-Jan-26 00:19N 48°17' W 124°12'5 6.7
2015-Jan-25 23:32N 48°19' W 124°19'7 6.8
2015-Jan-25 22:33N 48°22' W 124°28'6 6.0
2015-Jan-25 21:33N 48°25' W 124°37'5 5.2
2015-Jan-25 20:33N 48°26' W 124°44'5 4.6
2015-Jan-25 19:32N 48°23' W 124°50'9 7.3
2015-Jan-25 18:18N 48°16' W 124°58'72 7.3
2015-Jan-25 08:25N 47°06' W 124°34'6 7.1
2015-Jan-25 07:33N 46°60' W 124°32'7 7.1
2015-Jan-25 06:33N 46°53' W 124°29'7 7.1
2015-Jan-25 05:33N 46°46' W 124°27'7 7.3
2015-Jan-25 04:33N 46°39' W 124°25'7 7.3
2015-Jan-25 03:33N 46°32' W 124°23'7 7.3
2015-Jan-25 02:33N 46°25' W 124°21'8 7.6
2015-Jan-25 01:33N 46°17' W 124°18'7 6.9
2015-Jan-25 00:34N 46°11' W 124°15'7 6.8
2015-Jan-24 23:34N 46°05' W 124°21'7 7.0
2015-Jan-24 22:33N 46°00' W 124°28'7 6.9
2015-Jan-24 21:33N 45°54' W 124°32'7 7.3
2015-Jan-24 20:33N 45°47' W 124°33'7 7.1
2015-Jan-24 19:33N 45°40' W 124°34'7 7.3
2015-Jan-24 18:33N 45°32' W 124°34'  
2015-Jan-20 04:33N 45°35' W 124°35'7 7.3
2015-Jan-20 03:33N 45°42' W 124°34'8 7.6
2015-Jan-20 02:33N 45°50' W 124°33'8 7.6
2015-Jan-20 01:33N 45°58' W 124°30'7 7.3
2015-Jan-20 00:33N 46°03' W 124°24'7 6.7
2015-Jan-19 23:33N 46°08' W 124°17'6 6.2
2015-Jan-19 22:33N 46°14' W 124°18'7 6.8
2015-Jan-19 21:35N 46°21' W 124°20'0 8.1
2015-Jan-19 21:33N 46°21' W 124°20'7 6.9
2015-Jan-19 20:33N 46°28' W 124°22'3 7.1
2015-Jan-19 20:05N 46°31' W 124°23'4 6.8
2015-Jan-19 19:33N 46°35' W 124°24'3 7.2
2015-Jan-19 19:09N 46°37' W 124°24'4 7.3
2015-Jan-19 18:33N 46°42' W 124°26'4 7.5
2015-Jan-19 18:04N 46°45' W 124°27'4 7.3
2015-Jan-19 17:33N 46°49' W 124°28'0 7.6
2015-Jan-19 17:30N 46°49' W 124°28'  

Dump ship's entire track history